sensor_id;sensor_type;location;lat;lon;timestamp;pressure;altitude;pressure_sealevel;temperature;humidity
5755;BME280;2902;42.130;24.732;2023-04-25T00:01:17;98747.44;;;16.30;92.08
5755;BME280;2902;42.130;24.732;2023-04-25T00:03:44;98733.47;;;16.28;91.83
5755;BME280;2902;42.130;24.732;2023-04-25T00:06:13;98735.91;;;16.29;92.39
5755;BME280;2902;42.130;24.732;2023-04-25T00:08:40;98730.72;;;16.23;92.12
5755;BME280;2902;42.130;24.732;2023-04-25T00:11:07;98738.81;;;16.01;92.98
5755;BME280;2902;42.130;24.732;2023-04-25T00:13:33;98730.91;;;15.94;94.31
5755;BME280;2902;42.130;24.732;2023-04-25T00:16:00;98715.13;;;15.93;94.07
5755;BME280;2902;42.130;24.732;2023-04-25T00:18:28;98720.16;;;15.89;93.58
5755;BME280;2902;42.130;24.732;2023-04-25T00:20:55;98726.00;;;15.86;93.98
5755;BME280;2902;42.130;24.732;2023-04-25T00:23:23;98730.06;;;15.89;94.04
5755;BME280;2902;42.130;24.732;2023-04-25T00:25:50;98730.31;;;15.88;93.85
5755;BME280;2902;42.130;24.732;2023-04-25T00:28:17;98716.94;;;15.88;93.85
5755;BME280;2902;42.130;24.732;2023-04-25T00:30:44;98713.19;;;15.88;94.11
5755;BME280;2902;42.130;24.732;2023-04-25T00:33:10;98704.31;;;15.88;93.66
5755;BME280;2902;42.130;24.732;2023-04-25T00:35:37;98706.69;;;15.84;93.80
5755;BME280;2902;42.130;24.732;2023-04-25T00:38:04;98696.47;;;15.81;94.13
5755;BME280;2902;42.130;24.732;2023-04-25T00:40:33;98707.19;;;15.81;93.97
5755;BME280;2902;42.130;24.732;2023-04-25T00:42:59;98709.31;;;15.79;93.52
5755;BME280;2902;42.130;24.732;2023-04-25T00:45:28;98708.00;;;15.82;93.46
5755;BME280;2902;42.130;24.732;2023-04-25T00:47:55;98707.72;;;15.78;93.23
5755;BME280;2902;42.130;24.732;2023-04-25T00:50:23;98700.22;;;15.80;94.24
5755;BME280;2902;42.130;24.732;2023-04-25T00:52:50;98713.38;;;15.82;94.95
5755;BME280;2902;42.130;24.732;2023-04-25T00:55:17;98716.72;;;15.72;94.92
5755;BME280;2902;42.130;24.732;2023-04-25T00:57:45;98705.53;;;15.59;95.79
5755;BME280;2902;42.130;24.732;2023-04-25T01:00:12;98710.00;;;15.53;96.07
5755;BME280;2902;42.130;24.732;2023-04-25T01:02:40;98704.78;;;15.42;97.08
5755;BME280;2902;42.130;24.732;2023-04-25T01:05:07;98703.97;;;15.25;98.13
5755;BME280;2902;42.130;24.732;2023-04-25T01:07:34;98712.16;;;15.18;98.77
5755;BME280;2902;42.130;24.732;2023-04-25T01:10:02;98713.28;;;15.22;99.88
5755;BME280;2902;42.130;24.732;2023-04-25T01:12:29;98719.59;;;15.16;100.00
5755;BME280;2902;42.130;24.732;2023-04-25T01:14:57;98712.09;;;15.13;100.00
5755;BME280;2902;42.130;24.732;2023-04-25T01:17:24;98714.25;;;15.16;100.00
5755;BME280;2902;42.130;24.732;2023-04-25T01:19:51;98718.47;;;15.12;100.00
5755;BME280;2902;42.130;24.732;2023-04-25T01:22:19;98715.56;;;15.14;100.00
5755;BME280;2902;42.130;24.732;2023-04-25T01:24:46;98716.38;;;15.14;100.00
5755;BME280;2902;42.130;24.732;2023-04-25T01:27:13;98715.88;;;15.17;100.00
5755;BME280;2902;42.130;24.732;2023-04-25T01:29:40;98709.88;;;15.10;100.00
5755;BME280;2902;42.130;24.732;2023-04-25T01:32:07;98697.41;;;14.99;100.00
5755;BME280;2902;42.130;24.732;2023-04-25T01:34:34;98694.41;;;14.96;100.00
5755;BME280;2902;42.130;24.732;2023-04-25T01:37:01;98702.28;;;15.02;100.00
5755;BME280;2902;42.130;24.732;2023-04-25T01:39:29;98696.09;;;15.02;100.00
5755;BME280;2902;42.130;24.732;2023-04-25T01:41:56;98701.06;;;14.93;100.00
5755;BME280;2902;42.130;24.732;2023-04-25T01:44:23;98706.41;;;14.93;100.00
5755;BME280;2902;42.130;24.732;2023-04-25T01:46:50;98705.75;;;14.86;100.00
5755;BME280;2902;42.130;24.732;2023-04-25T01:49:17;98704.84;;;14.81;100.00
5755;BME280;2902;42.130;24.732;2023-04-25T01:51:45;98697.47;;;14.71;100.00
5755;BME280;2902;42.130;24.732;2023-04-25T01:54:12;98698.75;;;14.69;100.00
5755;BME280;2902;42.130;24.732;2023-04-25T01:56:40;98686.69;;;14.66;100.00
5755;BME280;2902;42.130;24.732;2023-04-25T01:59:07;98678.13;;;14.64;100.00
5755;BME280;2902;42.130;24.732;2023-04-25T02:01:34;98689.94;;;14.68;100.00
5755;BME280;2902;42.130;24.732;2023-04-25T02:04:00;98685.00;;;14.60;100.00
5755;BME280;2902;42.130;24.732;2023-04-25T02:06:27;98687.31;;;14.57;100.00
5755;BME280;2902;42.130;24.732;2023-04-25T02:08:54;98684.31;;;14.53;100.00
5755;BME280;2902;42.130;24.732;2023-04-25T02:11:21;98682.72;;;14.52;100.00
5755;BME280;2902;42.130;24.732;2023-04-25T02:13:49;98684.56;;;14.52;100.00
5755;BME280;2902;42.130;24.732;2023-04-25T02:16:15;98678.75;;;14.55;100.00
5755;BME280;2902;42.130;24.732;2023-04-25T02:18:43;98679.53;;;14.55;100.00
5755;BME280;2902;42.130;24.732;2023-04-25T02:21:10;98682.31;;;14.60;100.00
5755;BME280;2902;42.130;24.732;2023-04-25T02:23:36;98681.94;;;14.68;100.00
5755;BME280;2902;42.130;24.732;2023-04-25T02:26:03;98691.09;;;14.72;100.00
5755;BME280;2902;42.130;24.732;2023-04-25T02:28:30;98678.91;;;14.65;100.00
5755;BME280;2902;42.130;24.732;2023-04-25T02:30:58;98675.75;;;14.51;100.00
5755;BME280;2902;42.130;24.732;2023-04-25T02:33:26;98681.97;;;14.40;100.00
5755;BME280;2902;42.130;24.732;2023-04-25T02:35:53;98685.97;;;14.26;100.00
5755;BME280;2902;42.130;24.732;2023-04-25T02:38:19;98675.78;;;14.23;100.00
5755;BME280;2902;42.130;24.732;2023-04-25T02:40:46;98682.50;;;14.14;100.00
5755;BME280;2902;42.130;24.732;2023-04-25T02:43:13;98677.56;;;14.06;100.00
5755;BME280;2902;42.130;24.732;2023-04-25T02:45:41;98664.81;;;13.97;100.00
5755;BME280;2902;42.130;24.732;2023-04-25T02:48:09;98672.59;;;13.98;100.00
5755;BME280;2902;42.130;24.732;2023-04-25T02:50:36;98674.22;;;13.99;100.00
5755;BME280;2902;42.130;24.732;2023-04-25T02:53:02;98680.69;;;14.03;100.00
5755;BME280;2902;42.130;24.732;2023-04-25T02:55:29;98684.06;;;13.99;100.00
5755;BME280;2902;42.130;24.732;2023-04-25T02:57:56;98689.00;;;13.90;100.00
5755;BME280;2902;42.130;24.732;2023-04-25T03:00:22;98678.31;;;13.79;100.00
5755;BME280;2902;42.130;24.732;2023-04-25T03:02:50;98682.63;;;13.80;100.00
5755;BME280;2902;42.130;24.732;2023-04-25T03:05:18;98691.19;;;13.82;100.00
5755;BME280;2902;42.130;24.732;2023-04-25T03:07:45;98684.34;;;13.86;100.00
5755;BME280;2902;42.130;24.732;2023-04-25T03:10:12;98685.72;;;13.88;100.00
5755;BME280;2902;42.130;24.732;2023-04-25T03:12:39;98690.22;;;13.99;100.00
5755;BME280;2902;42.130;24.732;2023-04-25T03:15:06;98686.50;;;14.00;100.00
5755;BME280;2902;42.130;24.732;2023-04-25T03:17:33;98693.81;;;14.05;100.00
5755;BME280;2902;42.130;24.732;2023-04-25T03:20:00;98698.91;;;14.06;100.00
5755;BME280;2902;42.130;24.732;2023-04-25T03:22:28;98699.00;;;14.11;100.00
5755;BME280;2902;42.130;24.732;2023-04-25T03:24:55;98705.97;;;14.12;100.00
5755;BME280;2902;42.130;24.732;2023-04-25T03:27:21;98697.38;;;14.10;100.00
5755;BME280;2902;42.130;24.732;2023-04-25T03:29:48;98691.25;;;14.10;100.00
5755;BME280;2902;42.130;24.732;2023-04-25T03:32:15;98686.81;;;14.15;100.00
5755;BME280;2902;42.130;24.732;2023-04-25T03:34:41;98677.28;;;14.19;100.00
5755;BME280;2902;42.130;24.732;2023-04-25T03:37:08;98678.28;;;14.18;100.00
5755;BME280;2902;42.130;24.732;2023-04-25T03:39:36;98675.78;;;14.23;100.00
5755;BME280;2902;42.130;24.732;2023-04-25T03:42:03;98669.38;;;14.24;100.00
5755;BME280;2902;42.130;24.732;2023-04-25T03:44:30;98668.31;;;14.25;100.00
5755;BME280;2902;42.130;24.732;2023-04-25T03:46:57;98659.50;;;14.25;100.00
5755;BME280;2902;42.130;24.732;2023-04-25T03:49:24;98659.25;;;14.26;100.00
5755;BME280;2902;42.130;24.732;2023-04-25T03:51:51;98665.09;;;14.23;100.00
5755;BME280;2902;42.130;24.732;2023-04-25T03:54:17;98666.22;;;14.27;100.00
5755;BME280;2902;42.130;24.732;2023-04-25T03:56:45;98659.38;;;14.31;100.00
5755;BME280;2902;42.130;24.732;2023-04-25T03:59:13;98655.03;;;14.30;100.00
5755;BME280;2902;42.130;24.732;2023-04-25T04:01:40;98648.56;;;14.26;100.00
5755;BME280;2902;42.130;24.732;2023-04-25T04:04:07;98652.41;;;14.19;100.00
5755;BME280;2902;42.130;24.732;2023-04-25T04:06:33;98645.81;;;14.21;100.00
5755;BME280;2902;42.130;24.732;2023-04-25T04:09:01;98649.16;;;14.28;100.00
5755;BME280;2902;42.130;24.732;2023-04-25T04:11:28;98648.84;;;14.41;100.00
5755;BME280;2902;42.130;24.732;2023-04-25T04:13:58;98645.22;;;14.47;100.00
5755;BME280;2902;42.130;24.732;2023-04-25T04:16:24;98642.72;;;14.57;100.00
5755;BME280;2902;42.130;24.732;2023-04-25T04:18:51;98656.22;;;14.67;100.00
5755;BME280;2902;42.130;24.732;2023-04-25T04:21:18;98659.78;;;15.22;100.00
5755;BME280;2902;42.130;24.732;2023-04-25T04:23:44;98673.63;;;15.96;100.00
5755;BME280;2902;42.130;24.732;2023-04-25T04:26:11;98665.03;;;16.68;98.40
5755;BME280;2902;42.130;24.732;2023-04-25T04:28:38;98673.31;;;16.98;93.84
5755;BME280;2902;42.130;24.732;2023-04-25T04:31:06;98681.59;;;17.28;88.91
5755;BME280;2902;42.130;24.732;2023-04-25T04:33:33;98682.78;;;17.42;87.28
5755;BME280;2902;42.130;24.732;2023-04-25T04:36:00;98675.94;;;17.66;87.11
5755;BME280;2902;42.130;24.732;2023-04-25T04:38:28;98682.16;;;17.72;86.29
5755;BME280;2902;42.130;24.732;2023-04-25T04:40:55;98678.78;;;17.50;85.71
5755;BME280;2902;42.130;24.732;2023-04-25T04:43:22;98673.97;;;17.47;89.02
5755;BME280;2902;42.130;24.732;2023-04-25T04:45:49;98674.53;;;17.54;86.42
5755;BME280;2902;42.130;24.732;2023-04-25T04:48:17;98675.06;;;17.51;86.36
5755;BME280;2902;42.130;24.732;2023-04-25T04:50:44;98683.38;;;17.49;86.30
5755;BME280;2902;42.130;24.732;2023-04-25T04:53:11;98682.91;;;17.62;89.87
5755;BME280;2902;42.130;24.732;2023-04-25T04:55:38;98679.09;;;18.10;87.86
5755;BME280;2902;42.130;24.732;2023-04-25T04:58:06;98680.81;;;18.51;86.75
5755;BME280;2902;42.130;24.732;2023-04-25T05:00:34;98684.63;;;18.80;84.37
5755;BME280;2902;42.130;24.732;2023-04-25T05:03:01;98701.31;;;19.27;79.75
5755;BME280;2902;42.130;24.732;2023-04-25T05:05:29;98714.75;;;19.62;78.04
5755;BME280;2902;42.130;24.732;2023-04-25T05:07:56;98701.81;;;19.64;76.66
5755;BME280;2902;42.130;24.732;2023-04-25T05:10:22;98703.38;;;19.85;76.00
5755;BME280;2902;42.130;24.732;2023-04-25T05:12:49;98708.16;;;20.03;75.13
5755;BME280;2902;42.130;24.732;2023-04-25T05:15:16;98705.69;;;20.21;73.50
5755;BME280;2902;42.130;24.732;2023-04-25T05:17:42;98708.13;;;20.18;72.81
5755;BME280;2902;42.130;24.732;2023-04-25T05:20:10;98707.56;;;20.21;74.49
5755;BME280;2902;42.130;24.732;2023-04-25T05:22:38;98698.88;;;20.29;73.64
5755;BME280;2902;42.130;24.732;2023-04-25T05:25:07;98704.75;;;20.46;72.91
5755;BME280;2902;42.130;24.732;2023-04-25T05:27:36;98689.06;;;20.48;72.73
5755;BME280;2902;42.130;24.732;2023-04-25T05:30:04;98703.94;;;20.45;71.49
5755;BME280;2902;42.130;24.732;2023-04-25T05:32:31;98699.75;;;20.14;73.91
5755;BME280;2902;42.130;24.732;2023-04-25T05:34:58;98696.53;;;20.17;74.19
5755;BME280;2902;42.130;24.732;2023-04-25T05:37:25;98710.72;;;20.33;71.73
5755;BME280;2902;42.130;24.732;2023-04-25T05:39:53;98708.78;;;20.48;72.23
5755;BME280;2902;42.130;24.732;2023-04-25T05:42:20;98718.09;;;20.71;68.77
5755;BME280;2902;42.130;24.732;2023-04-25T05:44:46;98701.69;;;20.58;70.78
5755;BME280;2902;42.130;24.732;2023-04-25T05:47:13;98703.00;;;20.65;70.06
5755;BME280;2902;42.130;24.732;2023-04-25T05:49:40;98696.97;;;20.78;72.01
5755;BME280;2902;42.130;24.732;2023-04-25T05:52:07;98709.75;;;21.63;68.72
5755;BME280;2902;42.130;24.732;2023-04-25T05:54:33;98710.44;;;22.02;66.07
5755;BME280;2902;42.130;24.732;2023-04-25T05:57:01;98711.00;;;22.41;63.72
5755;BME280;2902;42.130;24.732;2023-04-25T05:59:29;98715.06;;;22.62;63.71
5755;BME280;2902;42.130;24.732;2023-04-25T06:01:55;98713.50;;;23.30;59.98
5755;BME280;2902;42.130;24.732;2023-04-25T06:04:22;98719.91;;;23.80;59.12
5755;BME280;2902;42.130;24.732;2023-04-25T06:06:49;98717.91;;;23.85;59.02
5755;BME280;2902;42.130;24.732;2023-04-25T06:09:15;98717.19;;;23.80;57.42
5755;BME280;2902;42.130;24.732;2023-04-25T06:11:42;98710.75;;;23.76;58.96
5755;BME280;2902;42.130;24.732;2023-04-25T06:14:10;98710.38;;;23.69;57.14
5755;BME280;2902;42.130;24.732;2023-04-25T06:16:37;98702.03;;;23.79;58.07
5755;BME280;2902;42.130;24.732;2023-04-25T06:19:03;98712.28;;;23.36;55.53
5755;BME280;2902;42.130;24.732;2023-04-25T06:21:30;98702.06;;;23.33;57.07
5755;BME280;2902;42.130;24.732;2023-04-25T06:23:57;98714.81;;;24.05;54.60
5755;BME280;2902;42.130;24.732;2023-04-25T06:26:24;98711.25;;;23.64;55.50
5755;BME280;2902;42.130;24.732;2023-04-25T06:28:51;98687.84;;;23.68;58.00
5755;BME280;2902;42.130;24.732;2023-04-25T06:31:19;98700.53;;;24.27;55.40
5755;BME280;2902;42.130;24.732;2023-04-25T06:33:45;98699.25;;;24.73;54.91
5755;BME280;2902;42.130;24.732;2023-04-25T06:36:13;98706.50;;;25.22;51.47
5755;BME280;2902;42.130;24.732;2023-04-25T06:38:40;98703.53;;;25.54;49.54
5755;BME280;2902;42.130;24.732;2023-04-25T06:41:07;98668.38;;;25.97;51.78
5755;BME280;2902;42.130;24.732;2023-04-25T06:43:33;98685.84;;;26.86;48.26
5755;BME280;2902;42.130;24.732;2023-04-25T06:46:00;98683.56;;;27.22;48.04
5755;BME280;2902;42.130;24.732;2023-04-25T06:48:28;98690.44;;;27.36;45.44
5755;BME280;2902;42.130;24.732;2023-04-25T06:50:55;98692.41;;;27.73;44.97
5755;BME280;2902;42.130;24.732;2023-04-25T06:53:22;98686.41;;;27.97;43.27
5755;BME280;2902;42.130;24.732;2023-04-25T06:55:48;98682.56;;;28.18;42.44
5755;BME280;2902;42.130;24.732;2023-04-25T06:58:15;98681.84;;;27.72;41.81
5755;BME280;2902;42.130;24.732;2023-04-25T07:00:42;98685.66;;;27.25;42.67
5755;BME280;2902;42.130;24.732;2023-04-25T07:03:08;98680.97;;;27.17;44.87
5755;BME280;2902;42.130;24.732;2023-04-25T07:05:36;98675.72;;;26.95;45.00
5755;BME280;2902;42.130;24.732;2023-04-25T07:08:03;98682.59;;;27.01;45.30
5755;BME280;2902;42.130;24.732;2023-04-25T07:10:30;98664.59;;;26.49;45.86
5755;BME280;2902;42.130;24.732;2023-04-25T07:12:56;98667.75;;;26.00;48.46
5755;BME280;2902;42.130;24.732;2023-04-25T07:15:23;98665.34;;;25.98;49.40
5755;BME280;2902;42.130;24.732;2023-04-25T07:17:50;98667.63;;;25.83;49.97
5755;BME280;2902;42.130;24.732;2023-04-25T07:20:17;98662.66;;;25.46;50.91
5755;BME280;2902;42.130;24.732;2023-04-25T07:22:45;98659.75;;;24.89;53.06
5755;BME280;2902;42.130;24.732;2023-04-25T07:25:11;98664.09;;;24.41;54.21
5755;BME280;2902;42.130;24.732;2023-04-25T07:27:38;98655.78;;;24.38;54.63
5755;BME280;2902;42.130;24.732;2023-04-25T07:30:07;98654.81;;;24.69;54.73
5755;BME280;2902;42.130;24.732;2023-04-25T07:32:34;98653.50;;;24.89;51.68
5755;BME280;2902;42.130;24.732;2023-04-25T07:35:01;98639.34;;;25.23;51.43
5755;BME280;2902;42.130;24.732;2023-04-25T07:37:28;98655.28;;;25.38;50.36
5755;BME280;2902;42.130;24.732;2023-04-25T07:39:56;98641.66;;;24.85;51.61
5755;BME280;2902;42.130;24.732;2023-04-25T07:42:23;98656.97;;;24.81;53.22
5755;BME280;2902;42.130;24.732;2023-04-25T07:44:50;98641.81;;;25.11;51.88
5755;BME280;2902;42.130;24.732;2023-04-25T07:47:17;98644.53;;;25.11;50.88
5755;BME280;2902;42.130;24.732;2023-04-25T07:49:44;98644.53;;;24.66;51.94
5755;BME280;2902;42.130;24.732;2023-04-25T07:52:11;98638.69;;;24.59;52.99
5755;BME280;2902;42.130;24.732;2023-04-25T07:54:38;98639.41;;;24.29;53.29
5755;BME280;2902;42.130;24.732;2023-04-25T07:57:06;98630.59;;;24.10;54.57
5755;BME280;2902;42.130;24.732;2023-04-25T07:59:33;98627.16;;;24.18;54.19
5755;BME280;2902;42.130;24.732;2023-04-25T08:02:00;98626.56;;;24.21;52.88
5755;BME280;2902;42.130;24.732;2023-04-25T08:04:27;98629.41;;;23.62;54.60
5755;BME280;2902;42.130;24.732;2023-04-25T08:06:54;98641.03;;;23.76;53.92
5755;BME280;2902;42.130;24.732;2023-04-25T08:09:21;98638.03;;;23.78;53.40
5755;BME280;2902;42.130;24.732;2023-04-25T08:11:48;98650.28;;;24.02;53.30
5755;BME280;2902;42.130;24.732;2023-04-25T08:14:16;98648.56;;;24.55;50.84
5755;BME280;2902;42.130;24.732;2023-04-25T08:16:43;98649.25;;;24.74;51.38
5755;BME280;2902;42.130;24.732;2023-04-25T08:19:10;98649.38;;;25.14;49.47
5755;BME280;2902;42.130;24.732;2023-04-25T08:21:37;98648.38;;;25.71;46.49
5755;BME280;2902;42.130;24.732;2023-04-25T08:24:04;98651.41;;;26.08;43.68
5755;BME280;2902;42.130;24.732;2023-04-25T08:26:31;98653.22;;;26.30;41.52
5755;BME280;2902;42.130;24.732;2023-04-25T08:28:58;98650.19;;;26.40;41.55
5755;BME280;2902;42.130;24.732;2023-04-25T08:31:26;98649.69;;;26.21;43.39
5755;BME280;2902;42.130;24.732;2023-04-25T08:33:53;98643.84;;;25.58;42.58
5755;BME280;2902;42.130;24.732;2023-04-25T08:36:19;98642.44;;;25.30;45.26
5755;BME280;2902;42.130;24.732;2023-04-25T08:38:46;98640.63;;;25.25;46.11
5755;BME280;2902;42.130;24.732;2023-04-25T08:41:13;98642.31;;;25.13;46.20
5755;BME280;2902;42.130;24.732;2023-04-25T08:43:42;98653.44;;;24.80;48.12
5755;BME280;2902;42.130;24.732;2023-04-25T08:46:09;98647.78;;;24.19;49.95
5755;BME280;2902;42.130;24.732;2023-04-25T08:48:40;98651.47;;;23.42;51.74
5755;BME280;2902;42.130;24.732;2023-04-25T08:51:09;98650.16;;;22.76;55.35
5755;BME280;2902;42.130;24.732;2023-04-25T08:53:38;98640.66;;;22.41;58.39
5755;BME280;2902;42.130;24.732;2023-04-25T08:56:08;98638.56;;;21.96;60.13
5755;BME280;2902;42.130;24.732;2023-04-25T08:58:38;98641.75;;;21.80;60.31
5755;BME280;2902;42.130;24.732;2023-04-25T09:01:06;98636.72;;;21.45;60.85
5755;BME280;2902;42.130;24.732;2023-04-25T09:03:32;98640.28;;;21.64;60.95
5755;BME280;2902;42.130;24.732;2023-04-25T09:06:01;98637.59;;;21.87;61.89
5755;BME280;2902;42.130;24.732;2023-04-25T09:08:28;98633.09;;;22.20;61.07
5755;BME280;2902;42.130;24.732;2023-04-25T09:10:55;98643.16;;;22.56;59.45
5755;BME280;2902;42.130;24.732;2023-04-25T09:13:25;98636.75;;;22.84;58.87
5755;BME280;2902;42.130;24.732;2023-04-25T09:15:53;98639.13;;;23.04;58.32
5755;BME280;2902;42.130;24.732;2023-04-25T09:18:24;98653.44;;;23.23;56.67
5755;BME280;2902;42.130;24.732;2023-04-25T09:20:52;98641.81;;;23.36;55.97
5755;BME280;2902;42.130;24.732;2023-04-25T09:23:21;98643.56;;;23.14;55.64
5755;BME280;2902;42.130;24.732;2023-04-25T09:25:49;98645.84;;;22.75;57.55
5755;BME280;2902;42.130;24.732;2023-04-25T09:28:19;98632.97;;;22.67;58.39
5755;BME280;2902;42.130;24.732;2023-04-25T09:30:49;98636.09;;;22.92;56.28
5755;BME280;2902;42.130;24.732;2023-04-25T09:33:15;98629.34;;;23.22;56.99
5755;BME280;2902;42.130;24.732;2023-04-25T09:35:43;98627.41;;;23.54;54.56
5755;BME280;2902;42.130;24.732;2023-04-25T09:38:11;98628.91;;;23.87;54.81
5755;BME280;2902;42.130;24.732;2023-04-25T09:40:41;98631.09;;;24.12;52.34
5755;BME280;2902;42.130;24.732;2023-04-25T09:43:10;98617.81;;;24.46;53.18
5755;BME280;2902;42.130;24.732;2023-04-25T09:45:44;98620.09;;;25.11;51.27
5755;BME280;2902;42.130;24.732;2023-04-25T09:48:17;98619.75;;;25.34;49.80
5755;BME280;2902;42.130;24.732;2023-04-25T09:50:44;98616.38;;;25.68;48.04
5755;BME280;2902;42.130;24.732;2023-04-25T09:53:11;98615.09;;;25.74;48.00
5755;BME280;2902;42.130;24.732;2023-04-25T09:55:38;98604.88;;;24.79;49.66
5755;BME280;2902;42.130;24.732;2023-04-25T09:58:07;98602.13;;;24.21;52.24
5755;BME280;2902;42.130;24.732;2023-04-25T10:00:35;98591.16;;;24.26;53.09
5755;BME280;2902;42.130;24.732;2023-04-25T10:03:05;98570.72;;;24.29;49.65
5755;BME280;2902;42.130;24.732;2023-04-25T10:05:34;98579.69;;;24.51;50.28
5755;BME280;2902;42.130;24.732;2023-04-25T10:08:03;98576.41;;;24.76;49.44
5755;BME280;2902;42.130;24.732;2023-04-25T10:10:30;98570.72;;;25.26;49.02
5755;BME280;2902;42.130;24.732;2023-04-25T10:13:03;98580.50;;;25.66;47.71
5755;BME280;2902;42.130;24.732;2023-04-25T10:15:32;98572.25;;;25.88;46.83
5755;BME280;2902;42.130;24.732;2023-04-25T10:18:00;98565.41;;;26.16;44.08
5755;BME280;2902;42.130;24.732;2023-04-25T10:20:28;98562.00;;;25.85;44.95
5755;BME280;2902;42.130;24.732;2023-04-25T10:22:58;98546.13;;;25.61;45.30
5755;BME280;2902;42.130;24.732;2023-04-25T10:25:30;98548.38;;;25.76;46.33
5755;BME280;2902;42.130;24.732;2023-04-25T10:27:59;98537.50;;;25.76;43.51
5755;BME280;2902;42.130;24.732;2023-04-25T10:30:27;98522.31;;;25.84;48.97
5755;BME280;2902;42.130;24.732;2023-04-25T10:32:56;98527.75;;;25.84;44.42
5755;BME280;2902;42.130;24.732;2023-04-25T10:35:25;98518.50;;;26.02;47.55
5755;BME280;2902;42.130;24.732;2023-04-25T10:38:06;98505.81;;;25.80;44.17
5755;BME280;2902;42.130;24.732;2023-04-25T10:40:35;98508.91;;;25.96;43.53
5755;BME280;2902;42.130;24.732;2023-04-25T10:43:33;98488.56;;;26.10;47.26
5755;BME280;2902;42.130;24.732;2023-04-25T10:46:00;98493.53;;;26.34;50.80
5755;BME280;2902;42.130;24.732;2023-04-25T10:48:29;98500.59;;;26.26;44.83
5755;BME280;2902;42.130;24.732;2023-04-25T10:51:08;98490.16;;;26.37;40.82
5755;BME280;2902;42.130;24.732;2023-04-25T10:53:35;98479.91;;;26.25;39.93
5755;BME280;2902;42.130;24.732;2023-04-25T10:56:09;98483.09;;;26.44;45.12
5755;BME280;2902;42.130;24.732;2023-04-25T10:58:41;98476.41;;;26.88;45.38
5755;BME280;2902;42.130;24.732;2023-04-25T11:01:08;98480.44;;;27.28;44.31
5755;BME280;2902;42.130;24.732;2023-04-25T11:03:40;98488.53;;;27.45;37.91
5755;BME280;2902;42.130;24.732;2023-04-25T11:06:15;98479.50;;;27.53;38.76
5755;BME280;2902;42.130;24.732;2023-04-25T11:08:48;98461.88;;;27.71;43.69
5755;BME280;2902;42.130;24.732;2023-04-25T11:11:15;98464.66;;;27.91;43.62
5755;BME280;2902;42.130;24.732;2023-04-25T11:13:42;98459.09;;;27.79;40.95
5755;BME280;2902;42.130;24.732;2023-04-25T11:16:08;98472.56;;;27.55;36.37
5755;BME280;2902;42.130;24.732;2023-04-25T11:18:35;98462.63;;;27.30;45.30
5755;BME280;2902;42.130;24.732;2023-04-25T11:21:05;98463.09;;;27.32;37.98
5755;BME280;2902;42.130;24.732;2023-04-25T11:23:32;98462.91;;;27.37;41.55
5755;BME280;2902;42.130;24.732;2023-04-25T11:25:59;98459.75;;;27.27;38.52
5755;BME280;2902;42.130;24.732;2023-04-25T11:28:27;98460.88;;;27.26;37.75
5755;BME280;2902;42.130;24.732;2023-04-25T11:30:53;98450.66;;;27.23;36.56
5755;BME280;2902;42.130;24.732;2023-04-25T11:33:23;98436.47;;;27.00;35.98
5755;BME280;2902;42.130;24.732;2023-04-25T11:35:53;98430.09;;;27.17;39.79
5755;BME280;2902;42.130;24.732;2023-04-25T11:38:21;98438.50;;;27.03;36.44
5755;BME280;2902;42.130;24.732;2023-04-25T11:40:51;98429.25;;;26.96;35.71
5755;BME280;2902;42.130;24.732;2023-04-25T11:43:20;98431.88;;;26.84;36.65
5755;BME280;2902;42.130;24.732;2023-04-25T11:45:47;98418.31;;;27.04;38.75
5755;BME280;2902;42.130;24.732;2023-04-25T11:48:14;98408.47;;;27.12;41.76
5755;BME280;2902;42.130;24.732;2023-04-25T11:50:41;98414.47;;;26.97;40.59
5755;BME280;2902;42.130;24.732;2023-04-25T11:53:08;98408.81;;;26.73;41.04
5755;BME280;2902;42.130;24.732;2023-04-25T11:55:37;98406.50;;;26.46;40.49
5755;BME280;2902;42.130;24.732;2023-04-25T11:58:05;98403.81;;;26.29;42.98
5755;BME280;2902;42.130;24.732;2023-04-25T12:00:32;98397.13;;;26.18;43.36
5755;BME280;2902;42.130;24.732;2023-04-25T12:02:59;98392.00;;;26.25;43.39
5755;BME280;2902;42.130;24.732;2023-04-25T12:05:27;98396.88;;;26.40;42.38
5755;BME280;2902;42.130;24.732;2023-04-25T12:07:54;98383.88;;;26.54;41.67
5755;BME280;2902;42.130;24.732;2023-04-25T12:10:21;98374.91;;;26.62;42.17
5755;BME280;2902;42.130;24.732;2023-04-25T12:12:49;98366.06;;;26.65;41.91
5755;BME280;2902;42.130;24.732;2023-04-25T12:15:17;98375.53;;;26.04;41.98
5755;BME280;2902;42.130;24.732;2023-04-25T12:17:46;98379.50;;;26.07;42.98
5755;BME280;2902;42.130;24.732;2023-04-25T12:20:14;98369.59;;;26.11;42.98
5755;BME280;2902;42.130;24.732;2023-04-25T12:22:42;98376.59;;;26.20;41.94
5755;BME280;2902;42.130;24.732;2023-04-25T12:25:11;98365.31;;;25.50;41.87
5755;BME280;2902;42.130;24.732;2023-04-25T12:27:38;98364.66;;;25.45;43.52
5755;BME280;2902;42.130;24.732;2023-04-25T12:30:10;98363.84;;;25.70;43.51
5755;BME280;2902;42.130;24.732;2023-04-25T12:32:37;98376.97;;;25.85;43.50
5755;BME280;2902;42.130;24.732;2023-04-25T12:35:04;98375.22;;;25.97;42.42
5755;BME280;2902;42.130;24.732;2023-04-25T12:37:31;98371.34;;;26.07;42.97
5755;BME280;2902;42.130;24.732;2023-04-25T12:39:58;98377.75;;;26.19;42.35
5755;BME280;2902;42.130;24.732;2023-04-25T12:42:25;98368.94;;;26.14;40.96
5755;BME280;2902;42.130;24.732;2023-04-25T12:44:52;98358.81;;;26.23;42.69
5755;BME280;2902;42.130;24.732;2023-04-25T12:47:20;98364.91;;;26.28;41.35
5755;BME280;2902;42.130;24.732;2023-04-25T12:49:46;98358.88;;;26.14;41.54
5755;BME280;2902;42.130;24.732;2023-04-25T12:52:14;98364.78;;;26.08;42.25
5755;BME280;2902;42.130;24.732;2023-04-25T12:54:40;98369.13;;;25.83;41.21
5755;BME280;2902;42.130;24.732;2023-04-25T12:57:07;98361.63;;;25.72;43.01
5755;BME280;2902;42.130;24.732;2023-04-25T12:59:34;98364.16;;;25.77;42.66
5755;BME280;2902;42.130;24.732;2023-04-25T13:02:01;98353.25;;;25.85;42.80
5755;BME280;2902;42.130;24.732;2023-04-25T13:04:29;98352.31;;;25.90;43.09
5755;BME280;2902;42.130;24.732;2023-04-25T13:06:56;98355.84;;;25.99;42.72
5755;BME280;2902;42.130;24.732;2023-04-25T13:09:22;98355.19;;;26.02;42.21